createdAt,value
2018-01-15T00:02:02.752Z,92.99
2018-01-15T00:04:31.407Z,92.76
2018-01-15T00:06:59.731Z,92.51
2018-01-15T00:09:28.193Z,92.64
2018-01-15T00:11:57.073Z,92.65
2018-01-15T00:14:26.152Z,92.67
2018-01-15T00:16:54.515Z,92.73
2018-01-15T00:19:22.832Z,92.70
2018-01-15T00:21:51.147Z,92.70
2018-01-15T00:24:19.499Z,92.53
2018-01-15T00:26:47.815Z,92.29
2018-01-15T00:29:16.741Z,92.39
2018-01-15T00:31:45.635Z,92.45
2018-01-15T00:34:13.971Z,92.57
2018-01-15T00:36:42.508Z,92.55
2018-01-15T00:39:11.254Z,92.46
2018-01-15T00:41:39.571Z,92.65
2018-01-15T00:44:07.879Z,92.24
2018-01-15T00:46:36.253Z,92.00
2018-01-15T00:49:05.175Z,92.01
2018-01-15T00:51:34.096Z,91.82
2018-01-15T00:54:02.444Z,91.69
2018-01-15T00:56:30.779Z,91.69
2018-01-15T00:58:59.096Z,91.70
2018-01-15T01:01:27.435Z,91.80
2018-01-15T01:03:55.751Z,91.80
2018-01-15T01:06:24.764Z,91.55
2018-01-15T01:08:53.671Z,91.45
2018-01-15T01:11:21.994Z,91.47
2018-01-15T01:13:50.372Z,91.68
2018-01-15T01:16:21.763Z,92.08
2018-01-15T01:18:51.407Z,92.15
2018-01-15T01:21:19.782Z,92.18
2018-01-15T01:23:48.148Z,92.17
2018-01-15T01:26:18.594Z,91.91
2018-01-15T01:28:46.903Z,91.76
2018-01-15T01:31:15.919Z,91.74
2018-01-15T01:33:44.238Z,91.94
2018-01-15T01:36:12.552Z,92.01
2018-01-15T01:38:40.923Z,92.29
2018-01-15T01:41:09.236Z,92.60
2018-01-15T01:43:37.551Z,92.32
2018-01-15T01:46:06.164Z,92.14
2018-01-15T01:48:35.211Z,91.88
2018-01-15T01:51:04.288Z,91.72
2018-01-15T01:53:32.647Z,91.90
2018-01-15T01:56:00.966Z,91.75
2018-01-15T01:58:29.280Z,91.97
2018-01-15T02:00:57.647Z,92.01
2018-01-15T02:03:25.962Z,92.06
2018-01-15T02:05:54.276Z,91.90
2018-01-15T02:08:22.615Z,91.91
2018-01-15T02:10:50.939Z,91.76
2018-01-15T02:13:20.118Z,91.71
2018-01-15T02:15:48.420Z,92.03
2018-01-15T02:18:16.764Z,91.96
2018-01-15T02:20:46.059Z,91.87
2018-01-15T02:23:14.770Z,91.81
2018-01-15T02:25:43.400Z,91.60
2018-01-15T02:28:12.478Z,91.67
2018-01-15T02:30:41.144Z,91.89
2018-01-15T02:33:09.456Z,91.70
2018-01-15T02:35:37.796Z,91.71
2018-01-15T02:38:07.512Z,91.86
2018-01-15T02:40:36.484Z,93.06
2018-01-15T02:43:04.812Z,93.77
2018-01-15T02:45:33.129Z,93.61
2018-01-15T02:48:01.507Z,93.32
2018-01-15T02:50:29.828Z,93.12
2018-01-15T02:52:58.146Z,92.80
2018-01-15T02:55:26.777Z,92.69
2018-01-15T02:57:55.086Z,93.12
2018-01-15T03:00:23.600Z,93.80
2018-01-15T03:02:52.559Z,94.25
2018-01-15T03:05:21.047Z,94.46
2018-01-15T03:07:49.512Z,94.50
2018-01-15T03:10:18.104Z,94.05
2018-01-15T03:12:46.644Z,94.08
2018-01-15T03:15:16.457Z,94.60
2018-01-15T03:17:45.223Z,95.32
2018-01-15T03:20:15.421Z,95.14
2018-01-15T03:22:44.184Z,94.84
2018-01-15T03:25:12.910Z,94.43
2018-01-15T03:27:42.326Z,94.17
2018-01-15T03:30:11.279Z,94.01
2018-01-15T03:32:39.667Z,94.04
2018-01-15T03:35:07.979Z,94.02
2018-01-15T03:37:36.875Z,93.98
2018-01-15T03:40:05.243Z,94.14
2018-01-15T03:42:33.564Z,94.34
2018-01-15T03:45:01.940Z,94.55
2018-01-15T03:47:30.280Z,94.66
2018-01-15T03:49:58.980Z,94.77
2018-01-15T03:52:28.099Z,94.62
2018-01-15T03:54:56.427Z,94.58
2018-01-15T03:57:24.762Z,94.46
2018-01-15T03:59:53.128Z,94.13
2018-01-15T04:02:21.504Z,94.03
2018-01-15T04:04:50.408Z,93.78
2018-01-15T04:07:19.471Z,93.76
2018-01-15T04:09:47.797Z,93.86
2018-01-15T04:12:16.337Z,94.17
2018-01-15T04:14:44.763Z,94.16
2018-01-15T04:17:13.079Z,94.13
2018-01-15T04:19:42.344Z,94.08
2018-01-15T04:22:10.664Z,93.84
2018-01-15T04:24:39.742Z,93.75
2018-01-15T04:27:08.412Z,93.52
2018-01-15T04:29:36.726Z,93.25
2018-01-15T04:32:05.815Z,93.23
2018-01-15T04:34:34.553Z,93.19
2018-01-15T04:37:02.887Z,93.14
2018-01-15T04:39:31.219Z,93.09
2018-01-15T04:41:59.567Z,93.49
2018-01-15T04:44:27.883Z,93.85
2018-01-15T04:46:56.412Z,94.11
2018-01-15T04:49:25.119Z,94.02
2018-01-15T04:51:53.465Z,94.00
2018-01-15T04:54:22.568Z,93.88
2018-01-15T04:56:51.714Z,93.58
2018-01-15T04:59:20.036Z,93.18
2018-01-15T05:01:48.353Z,92.97
2018-01-15T05:04:16.967Z,92.93
2018-01-15T05:06:45.281Z,92.98
2018-01-15T05:09:13.655Z,92.81
2018-01-15T05:11:42.811Z,92.71
2018-01-15T05:14:11.453Z,92.72
2018-01-15T05:16:39.843Z,92.53
2018-01-15T05:19:08.211Z,91.96
2018-01-15T05:21:37.296Z,91.69
2018-01-15T05:24:06.383Z,91.83
2018-01-15T05:26:35.515Z,92.03
2018-01-15T05:29:03.835Z,91.87
2018-01-15T05:31:32.161Z,91.60
2018-01-15T05:34:00.865Z,91.55
2018-01-15T05:36:29.188Z,91.51
2018-01-15T05:38:57.516Z,91.56
2018-01-15T05:41:26.047Z,91.52
2018-01-15T05:43:55.165Z,91.51
2018-01-15T05:46:23.843Z,91.60
2018-01-15T05:48:52.188Z,91.70
2018-01-15T05:51:20.527Z,91.59
2018-01-15T05:53:49.132Z,91.90
2018-01-15T05:56:17.487Z,92.08
2018-01-15T05:58:45.815Z,92.30
2018-01-15T06:01:14.196Z,92.42
2018-01-15T06:03:42.516Z,92.13
2018-01-15T06:06:11.023Z,91.80
2018-01-15T06:08:39.935Z,92.04
2018-01-15T06:11:08.900Z,92.21
2018-01-15T06:13:37.219Z,92.40
2018-01-15T06:16:06.431Z,92.03
2018-01-15T06:18:34.748Z,91.36
2018-01-15T06:21:03.064Z,91.61
2018-01-15T06:23:31.752Z,91.48
2018-01-15T06:26:00.078Z,91.53
2018-01-15T06:28:28.864Z,91.63
2018-01-15T06:30:57.227Z,91.89
2018-01-15T06:33:26.315Z,91.35
2018-01-15T06:35:55.620Z,90.70
2018-01-15T06:38:24.751Z,90.20
2018-01-15T06:40:53.072Z,90.11
2018-01-15T06:43:21.395Z,91.01
2018-01-15T06:45:49.867Z,91.12
2018-01-15T06:48:18.192Z,91.06
2018-01-15T06:50:46.512Z,90.29
2018-01-15T06:53:14.851Z,90.38
2018-01-15T06:55:43.779Z,90.49
2018-01-15T06:58:12.176Z,90.42
2018-01-15T07:00:40.499Z,90.52
2018-01-15T07:03:08.811Z,90.89
2018-01-15T07:05:37.420Z,90.72
2018-01-15T07:08:05.740Z,91.13
2018-01-15T07:10:34.067Z,91.24
2018-01-15T07:13:02.452Z,91.15
2018-01-15T07:15:30.780Z,91.93
2018-01-15T07:17:59.108Z,92.20
2018-01-15T07:20:27.471Z,92.44
2018-01-15T07:22:56.559Z,92.63
2018-01-15T07:25:25.092Z,92.71
2018-01-15T07:27:55.211Z,93.00
2018-01-15T07:30:23.596Z,92.99
2018-01-15T07:32:51.912Z,92.92
2018-01-15T07:35:21.232Z,92.79
2018-01-15T07:37:49.706Z,92.54
2018-01-15T07:40:18.043Z,92.38
2018-01-15T07:42:46.415Z,92.58
2018-01-15T07:45:14.731Z,92.08
2018-01-15T07:47:43.831Z,91.59
2018-01-15T07:50:13.617Z,91.31
2018-01-15T07:52:42.411Z,91.69
2018-01-15T07:55:10.740Z,92.03
2018-01-15T07:57:39.067Z,91.47
2018-01-15T08:00:07.692Z,91.48
2018-01-15T08:02:36.777Z,91.46
2018-01-15T08:05:05.885Z,91.97
2018-01-15T08:07:34.608Z,90.86
2018-01-15T08:10:02.932Z,90.46
2018-01-15T08:12:31.259Z,90.73
2018-01-15T08:14:59.620Z,90.84
2018-01-15T08:17:27.936Z,90.71
2018-01-15T08:19:56.257Z,90.60
2018-01-15T08:22:25.132Z,90.09
2018-01-15T08:24:53.461Z,90.52
2018-01-15T08:27:21.811Z,90.65
2018-01-15T08:29:50.503Z,90.65
2018-01-15T08:32:18.824Z,90.87
2018-01-15T08:34:47.156Z,90.63
2018-01-15T08:37:15.659Z,90.32
2018-01-15T08:39:43.996Z,90.58
2018-01-15T08:42:13.075Z,91.03
2018-01-15T08:44:41.463Z,90.89
2018-01-15T08:47:09.871Z,89.54
2018-01-15T08:49:38.195Z,89.88
2018-01-15T08:52:07.694Z,90.19
2018-01-15T08:54:36.024Z,90.54
2018-01-15T08:57:04.364Z,89.47
2018-01-15T08:59:33.481Z,87.38
2018-01-15T09:02:02.569Z,87.02
2018-01-15T09:04:30.907Z,87.24
2018-01-15T09:06:59.259Z,86.85
2018-01-15T09:09:27.583Z,87.92
2018-01-15T09:11:56.527Z,88.81
2018-01-15T09:14:24.972Z,85.91
2018-01-15T09:16:53.313Z,84.86
2018-01-15T09:19:21.936Z,83.48
2018-01-15T09:21:51.011Z,82.99
2018-01-15T09:24:19.835Z,81.00
2018-01-15T09:26:48.223Z,83.15
2018-01-15T09:29:17.446Z,80.57
2018-01-15T09:31:45.823Z,80.91
2018-01-15T09:34:14.180Z,81.40
2018-01-15T09:36:42.815Z,76.26
2018-01-15T09:39:11.120Z,74.17
2018-01-15T09:41:39.444Z,74.24
2018-01-15T09:44:08.048Z,73.32
2018-01-15T09:46:36.359Z,73.69
2018-01-15T09:49:05.347Z,73.51
2018-01-15T09:51:34.023Z,73.76
2018-01-15T09:54:02.352Z,74.53
2018-01-15T09:56:30.651Z,74.18
2018-01-15T09:58:59.023Z,75.85
2018-01-15T10:01:27.372Z,72.91
2018-01-15T10:03:55.676Z,72.55
2018-01-15T10:06:24.026Z,73.05
2018-01-15T10:08:52.860Z,73.58
2018-01-15T10:11:21.167Z,72.43
2018-01-15T10:13:49.624Z,73.25
2018-01-15T10:16:17.923Z,72.58
2018-01-15T10:18:46.228Z,72.45
2018-01-15T10:21:14.572Z,72.53
2018-01-15T10:23:42.875Z,72.63
2018-01-15T10:26:11.208Z,72.51
2018-01-15T10:28:39.936Z,71.78
2018-01-15T10:31:09.019Z,71.83
2018-01-15T10:33:37.484Z,72.79
2018-01-15T10:36:06.484Z,71.01
2018-01-15T10:38:34.788Z,69.34
2018-01-15T10:41:03.098Z,68.57
2018-01-15T10:43:31.452Z,68.17
2018-01-15T10:45:59.845Z,68.18
2018-01-15T10:48:29.051Z,67.03
2018-01-15T10:50:57.816Z,67.75
2018-01-15T10:53:26.914Z,66.70
2018-01-15T10:55:55.267Z,66.43
2018-01-15T10:58:24.068Z,67.26
2018-01-15T11:00:52.944Z,66.54
2018-01-15T11:03:21.296Z,66.07
2018-01-15T11:05:49.596Z,65.77
2018-01-15T11:08:18.399Z,65.46
2018-01-15T11:10:47.391Z,65.22
2018-01-15T11:13:15.695Z,65.31
2018-01-15T11:15:44.000Z,64.37
2018-01-15T11:18:12.594Z,64.22
2018-01-15T11:20:41.072Z,64.04
2018-01-15T11:23:09.499Z,65.56
2018-01-15T11:25:37.807Z,66.19
2018-01-15T11:28:06.695Z,66.21
2018-01-15T11:30:35.567Z,66.67
2018-01-15T11:33:04.164Z,66.47
2018-01-15T11:35:32.467Z,66.72
2018-01-15T11:38:01.192Z,67.25
2018-01-15T11:40:29.615Z,67.48
2018-01-15T11:42:58.190Z,67.65
2018-01-15T11:45:26.614Z,68.15
2018-01-15T11:47:54.999Z,68.59
2018-01-15T11:50:23.716Z,68.44
2018-01-15T11:52:52.196Z,67.35
2018-01-15T11:55:21.267Z,68.14
2018-01-15T11:57:50.254Z,66.21
2018-01-15T12:00:18.611Z,66.47
2018-01-15T12:02:47.636Z,66.02
2018-01-15T12:05:15.959Z,64.85
2018-01-15T12:07:44.512Z,65.12
2018-01-15T12:10:14.065Z,65.73
2018-01-15T12:12:42.467Z,65.59
2018-01-15T12:15:10.763Z,64.76
2018-01-15T12:17:39.080Z,65.61
2018-01-15T12:20:07.467Z,65.72
2018-01-15T12:22:35.924Z,65.80
2018-01-15T12:25:04.692Z,64.83
2018-01-15T12:27:33.053Z,64.64
2018-01-15T12:30:01.366Z,64.65
2018-01-15T12:32:29.683Z,65.27
2018-01-15T12:34:58.031Z,64.83
2018-01-15T12:37:26.335Z,65.06
2018-01-15T12:39:54.636Z,65.37
2018-01-15T12:42:24.492Z,64.17
2018-01-15T12:44:54.778Z,63.71
2018-01-15T12:47:23.109Z,63.19
2018-01-15T12:49:51.415Z,62.90
2018-01-15T12:52:20.040Z,63.40
2018-01-15T12:54:49.121Z,63.36
2018-01-15T12:57:18.223Z,63.24
2018-01-15T12:59:47.351Z,64.75
2018-01-15T13:02:15.651Z,62.22
2018-01-15T13:04:44.719Z,62.43
2018-01-15T13:07:30.925Z,62.41
2018-01-15T13:09:59.227Z,61.80
2018-01-15T13:12:27.535Z,62.13
2018-01-15T13:14:56.671Z,62.77
2018-01-15T13:17:26.123Z,62.17
2018-01-15T13:19:54.500Z,63.45
2018-01-15T13:22:22.807Z,63.53
2018-01-15T13:24:51.147Z,63.66
2018-01-15T13:27:19.451Z,63.05
2018-01-15T13:29:47.840Z,63.69
2018-01-15T13:32:16.716Z,63.30
2018-01-15T13:34:45.088Z,63.40
2018-01-15T13:37:14.092Z,63.81
2018-01-15T13:39:42.447Z,62.80
2018-01-15T13:42:10.871Z,62.76
2018-01-15T13:44:39.170Z,63.74
2018-01-15T13:47:07.970Z,62.99
2018-01-15T13:49:36.272Z,62.48
2018-01-15T13:52:04.817Z,62.87
2018-01-15T13:54:33.152Z,62.97
2018-01-15T13:57:01.464Z,63.65
2018-01-15T13:59:29.767Z,64.05
2018-01-15T14:01:59.407Z,64.80
2018-01-15T14:04:27.707Z,64.77
2018-01-15T14:06:56.342Z,64.91
2018-01-15T14:09:24.699Z,64.18
2018-01-15T14:11:53.009Z,64.09
2018-01-15T14:14:21.760Z,64.17
2018-01-15T14:16:50.788Z,62.79
2018-01-15T14:19:20.536Z,63.25
2018-01-15T14:21:48.854Z,64.54
2018-01-15T14:24:17.228Z,63.18
2018-01-15T14:26:45.535Z,63.07
2018-01-15T14:29:13.843Z,63.15
2018-01-15T14:31:42.201Z,62.86
2018-01-15T14:34:10.508Z,62.86
2018-01-15T14:36:38.887Z,62.91
2018-01-15T14:39:07.247Z,62.76
2018-01-15T14:41:36.319Z,63.14
2018-01-15T14:44:04.674Z,64.41
2018-01-15T14:46:34.218Z,64.81
2018-01-15T14:49:02.527Z,65.66
2018-01-15T14:51:30.835Z,66.49
2018-01-15T14:53:59.456Z,67.24
2018-01-15T14:56:27.832Z,67.26
2018-01-15T14:58:56.515Z,67.35
2018-01-15T15:01:25.107Z,68.05
2018-01-15T15:03:53.418Z,69.35
2018-01-15T15:06:21.728Z,69.25
2018-01-15T15:08:50.083Z,70.12
2018-01-15T15:11:18.640Z,70.16
2018-01-15T15:13:47.452Z,70.98
2018-01-15T15:16:15.988Z,70.65
2018-01-15T15:18:44.305Z,70.08
2018-01-15T15:21:12.619Z,70.83
2018-01-15T15:23:40.967Z,71.47
2018-01-15T15:26:09.266Z,72.30
2018-01-15T15:28:37.567Z,72.10
2018-01-15T15:31:05.919Z,73.17
2018-01-15T15:33:34.223Z,72.89
2018-01-15T15:36:02.531Z,73.61
2018-01-15T15:38:32.151Z,72.42
2018-01-15T15:41:00.544Z,72.83
2018-01-15T15:43:28.850Z,72.58
2018-01-15T15:45:57.766Z,73.11
2018-01-15T15:48:26.096Z,73.46
2018-01-15T15:50:54.415Z,74.38
2018-01-15T15:53:22.763Z,74.28
2018-01-15T15:55:51.502Z,74.44
2018-01-15T15:58:20.009Z,74.65
2018-01-15T16:00:49.113Z,75.98
2018-01-15T16:03:17.410Z,74.76
2018-01-15T16:05:45.715Z,75.01
2018-01-15T16:08:14.094Z,75.59
2018-01-15T16:10:43.083Z,75.64
2018-01-15T16:13:11.409Z,75.83
2018-01-15T16:15:39.797Z,75.39
2018-01-15T16:18:08.113Z,76.13
2018-01-15T16:20:36.963Z,76.80
2018-01-15T16:23:05.315Z,74.80
2018-01-15T16:25:34.388Z,75.42
2018-01-15T16:28:02.691Z,74.76
2018-01-15T16:30:31.420Z,74.90
2018-01-15T16:32:59.724Z,75.13
2018-01-15T16:35:28.203Z,75.50
2018-01-15T16:37:56.887Z,76.17
2018-01-15T16:40:25.333Z,76.11
2018-01-15T16:42:53.649Z,76.00
2018-01-15T16:45:22.251Z,76.20
2018-01-15T16:47:50.551Z,75.79
2018-01-15T16:50:24.275Z,75.77
2018-01-15T16:52:52.579Z,78.73
2018-01-15T16:55:20.887Z,77.76
2018-01-15T16:57:49.925Z,77.27
2018-01-15T17:00:18.382Z,77.14
2018-01-15T17:02:46.697Z,74.82
2018-01-15T17:05:15.711Z,78.59
2018-01-15T17:07:44.016Z,77.54
2018-01-15T17:10:12.323Z,75.88
2018-01-15T17:12:42.025Z,77.92
2018-01-15T17:15:10.395Z,75.99
2018-01-15T17:17:38.719Z,73.10
2018-01-15T17:20:07.726Z,70.22
2018-01-15T17:22:36.039Z,73.04
2018-01-15T17:25:04.339Z,71.00
2018-01-15T17:27:32.690Z,71.39
2018-01-15T17:30:01.009Z,71.26
2018-01-15T17:32:29.315Z,73.16
2018-01-15T17:34:58.303Z,70.44
2018-01-15T17:37:26.675Z,72.47
2018-01-15T17:39:55.179Z,72.04
2018-01-15T17:42:23.764Z,70.40
2018-01-15T17:44:52.727Z,73.17
2018-01-15T17:47:21.323Z,72.89
2018-01-15T17:49:49.716Z,72.84
2018-01-15T17:52:18.040Z,71.25
2018-01-15T17:54:46.735Z,70.28
2018-01-15T17:57:15.051Z,71.21
2018-01-15T17:59:43.350Z,71.75
2018-01-15T18:02:12.075Z,74.36
2018-01-15T18:04:40.385Z,72.33
2018-01-15T18:07:09.353Z,71.31
2018-01-15T18:09:37.719Z,71.44
2018-01-15T18:12:06.584Z,69.40
2018-01-15T18:14:35.179Z,71.13
2018-01-15T18:17:04.069Z,71.31
2018-01-15T18:19:32.384Z,74.03
2018-01-15T18:22:01.339Z,73.93
2018-01-15T18:24:29.875Z,73.32
2018-01-15T18:26:58.309Z,71.64
2018-01-15T18:29:27.671Z,69.18
2018-01-15T18:31:56.734Z,72.17
2018-01-15T18:34:25.960Z,74.50
2018-01-15T18:36:54.263Z,74.42
2018-01-15T18:39:23.342Z,74.31
2018-01-15T18:41:52.428Z,73.55
2018-01-15T18:44:20.739Z,74.94
2018-01-15T18:46:49.043Z,74.02
2018-01-15T18:49:18.064Z,74.75
2018-01-15T18:51:47.019Z,72.71
2018-01-15T18:54:15.323Z,72.76
2018-01-15T18:56:43.760Z,73.87
2018-01-15T18:59:12.528Z,73.46
2018-01-15T19:01:40.827Z,74.77
2018-01-15T19:04:10.179Z,79.05
2018-01-15T19:06:38.484Z,77.74
2018-01-15T19:09:07.308Z,77.26
2018-01-15T19:11:35.827Z,81.87
2018-01-15T19:14:05.237Z,76.82
2018-01-15T19:16:33.995Z,79.12
2018-01-15T19:19:02.606Z,77.56
2018-01-15T19:21:30.917Z,80.37
2018-01-15T19:23:59.223Z,78.05
2018-01-15T19:26:28.784Z,79.52
2018-01-15T19:28:58.067Z,79.00
2018-01-15T19:31:26.969Z,78.50
2018-01-15T19:33:56.058Z,80.17
2018-01-15T19:36:30.367Z,80.90
2018-01-15T19:38:58.789Z,80.67
2018-01-15T19:41:29.371Z,81.28
2018-01-15T19:44:04.549Z,80.95
2018-01-15T19:46:38.259Z,81.65
2018-01-15T19:49:12.016Z,82.40
2018-01-15T19:51:45.711Z,81.57
2018-01-15T19:54:19.975Z,82.56
2018-01-15T19:56:53.751Z,83.59
2018-01-15T19:59:27.564Z,83.41
2018-01-15T20:02:02.192Z,82.46
2018-01-15T20:04:36.047Z,82.24
2018-01-15T20:07:09.935Z,82.84
2018-01-15T20:09:43.983Z,84.04
2018-01-15T20:12:12.768Z,85.07
2018-01-15T20:14:42.099Z,85.13
2018-01-15T20:17:11.908Z,85.09
2018-01-15T20:19:42.103Z,85.82
2018-01-15T20:22:12.453Z,86.66
2018-01-15T20:24:51.931Z,87.11
2018-01-15T20:27:21.866Z,87.34
2018-01-15T20:29:51.754Z,87.25
2018-01-15T20:32:25.788Z,87.50
2018-01-15T20:34:55.731Z,87.77
2018-01-15T20:37:24.955Z,87.66
2018-01-15T20:39:54.673Z,87.30
2018-01-15T20:42:24.669Z,87.50
2018-01-15T20:44:55.387Z,87.95
2018-01-15T20:47:33.803Z,88.14
2018-01-15T20:50:03.313Z,86.74
2018-01-15T20:52:39.006Z,87.16
2018-01-15T20:55:08.946Z,87.78
2018-01-15T20:57:42.629Z,87.72
2018-01-15T21:00:14.113Z,86.79
2018-01-15T21:02:44.246Z,87.75
2018-01-15T21:05:14.262Z,87.71
2018-01-15T21:07:43.279Z,87.52
2018-01-15T21:10:13.191Z,87.33
2018-01-15T21:12:41.645Z,87.82
2018-01-15T21:15:10.023Z,88.72
2018-01-15T21:17:38.980Z,88.64
2018-01-15T21:20:08.274Z,87.86
2018-01-15T21:22:36.630Z,88.14
2018-01-15T21:25:05.007Z,88.35
2018-01-15T21:27:34.872Z,88.14
2018-01-15T21:30:03.583Z,87.64
2018-01-15T21:32:31.940Z,87.77
2018-01-15T21:35:00.279Z,87.10
2018-01-15T21:37:29.637Z,87.07
2018-01-15T21:39:58.759Z,87.27
2018-01-15T21:42:27.838Z,86.80
2018-01-15T21:44:56.599Z,86.76
2018-01-15T21:47:24.896Z,87.27
2018-01-15T21:49:53.237Z,87.70
2018-01-15T21:52:22.939Z,86.55
2018-01-15T21:54:52.183Z,86.47
2018-01-15T21:57:20.528Z,86.65
2018-01-15T21:59:48.931Z,86.22
2018-01-15T22:02:17.227Z,87.06
2018-01-15T22:04:45.895Z,86.44
2018-01-15T22:07:14.265Z,86.41
2018-01-15T22:09:42.607Z,86.06
2018-01-15T22:12:11.486Z,86.19
2018-01-15T22:14:39.872Z,86.43
2018-01-15T22:17:08.284Z,86.02
2018-01-15T22:19:36.625Z,86.03
2018-01-15T22:22:04.968Z,85.74
2018-01-15T22:24:33.987Z,84.67
2018-01-15T22:27:02.384Z,85.14
2018-01-15T22:29:30.727Z,85.14
2018-01-15T22:31:59.065Z,85.41
2018-01-15T22:34:28.129Z,85.05
2018-01-15T22:36:57.240Z,85.03
2018-01-15T22:39:26.872Z,85.33
2018-01-15T22:41:55.966Z,85.17
2018-01-15T22:44:24.855Z,85.27
2018-01-15T22:46:53.369Z,84.82
2018-01-15T22:49:22.248Z,85.32
2018-01-15T22:51:51.475Z,85.74
2018-01-15T22:54:20.343Z,86.01
2018-01-15T22:56:49.672Z,85.80
2018-01-15T22:59:18.445Z,85.93
2018-01-15T23:01:47.860Z,86.16
2018-01-15T23:04:16.159Z,86.36
2018-01-15T23:06:44.520Z,86.16
2018-01-15T23:09:12.844Z,86.04
2018-01-15T23:11:41.454Z,86.85
2018-01-15T23:14:10.047Z,87.05
2018-01-15T23:16:38.432Z,87.32
2018-01-15T23:19:06.726Z,87.69
2018-01-15T23:21:35.068Z,88.11
2018-01-15T23:24:03.428Z,87.22
2018-01-15T23:26:32.075Z,87.77
2018-01-15T23:29:00.437Z,87.86
2018-01-15T23:31:28.744Z,87.85
2018-01-15T23:33:57.051Z,87.50
2018-01-15T23:36:25.634Z,88.08
2018-01-15T23:38:53.932Z,87.91
2018-01-15T23:41:22.823Z,87.52
2018-01-15T23:43:52.412Z,87.84
2018-01-15T23:46:20.721Z,87.31
2018-01-15T23:48:49.028Z,87.36
2018-01-15T23:51:17.391Z,87.58
2018-01-15T23:53:45.723Z,86.49
2018-01-15T23:56:14.027Z,86.17
2018-01-15T23:58:42.942Z,86.75
